Wellington, Nevada
Current Conditions -  °F | °C
As of 6:52 AM on Saturday 20 Dec 2014 (Local Time) from KBAN Reporting Station
Light Snow Light Snow  
Wind Chill: 38°   Ceiling: 3000
Heat Index: 38°   Visibility: NA
Dew Point: 29°   Wind: 3mph
Humidity: 70%   Direction: 290°WNW
Pressure: 30.08"   Gusts: NA
Location:  38.75°N, 119.37°W
Report Text: KBAN 201452Z AUTO 29003KT -SN OVC030 03/M02 A3008 RMK AO2 RAB44E49SNE03B49 SLP175 P0000 60000 T00331017 51006 $
Loading
Personal Weather Stations






























Interactive Weather Map New forecast layout! Learn more

10-Day Weather Forecast

Advertisements
Track Severe Weather on mobile